Time;durP1;ratioP1;P1;durP2;ratioP2;P2;SDS_P1;SDS_P2;PMS_P1;PMS_P2;Temp;Humidity;BMP_temperature;BMP_pressure;BME280_temperature;BME280_humidity;BME280_pressure;Samples;Min_cycle;Max_cycle;Signal;HPM_P1;HPM_P2
2021/11/26 00:01:31;;;;;;;48.38;30.27;;;;;;;1.53;65.92;100318.84;1741360;81;21318;-70
2021/11/26 00:03:58;;;;;;;52.70;32.50;;;;;;;1.56;66.01;100310.47;1732857;81;21508;-70
2021/11/26 00:06:26;;;;;;;27.87;18.15;;;;;;;1.59;66.06;100306.88;1723382;81;22184;-71
2021/11/26 00:08:52;;;;;;;23.30;16.05;;;;;;;1.62;66.19;100302.83;1720147;82;20938;-70
2021/11/26 00:11:19;;;;;;;14.40;10.60;;;;;;;1.66;66.29;100303.10;1713007;81;20961;-71
2021/11/26 00:13:54;;;;;;;14.90;10.65;;;;;;;1.69;66.47;100305.56;1722858;81;21050;-71
2021/11/26 00:16:20;;;;;;;12.95;9.73;;;;;;;1.72;66.60;100301.52;1715582;81;21025;-71
2021/11/26 00:18:52;;;;;;;13.72;9.48;;;;;;;1.77;66.77;100301.33;1704035;82;21525;-70
2021/11/26 00:21:14;;;;;;;14.23;9.30;;;;;;;1.83;66.87;100299.73;1723387;82;21027;-70
2021/11/26 00:23:41;;;;;;;12.13;8.80;;;;;;;1.86;66.99;100302.22;1683362;84;21488;-69
2021/11/26 00:26:08;;;;;;;14.83;9.60;;;;;;;1.87;67.00;100294.34;1689058;83;21061;-69
2021/11/26 00:28:35;;;;;;;13.28;9.10;;;;;;;1.88;66.99;100284.30;1699715;84;21152;-69
2021/11/26 00:31:02;;;;;;;13.03;9.40;;;;;;;1.88;67.09;100285.61;1693224;83;22918;-69
2021/11/26 00:33:28;;;;;;;14.18;8.90;;;;;;;1.90;67.13;100291.58;1667210;85;20989;-70
2021/11/26 00:35:55;;;;;;;13.83;8.85;;;;;;;1.91;67.17;100284.16;1660786;84;21052;-71
2021/11/26 00:38:21;;;;;;;13.43;9.35;;;;;;;1.94;67.16;100281.89;1673171;85;21139;-71
2021/11/26 00:40:48;;;;;;;12.55;8.73;;;;;;;1.96;67.12;100276.99;1672431;85;21127;-70
2021/11/26 00:43:15;;;;;;;12.98;8.80;;;;;;;1.97;67.19;100270.02;1663048;84;21885;-71
2021/11/26 00:45:42;;;;;;;11.95;8.68;;;;;;;1.98;67.21;100263.89;1657205;84;21403;-70
2021/11/26 00:48:10;;;;;;;14.15;9.25;;;;;;;1.99;67.23;100256.46;1677202;84;20980;-70
2021/11/26 00:50:37;;;;;;;12.75;8.58;;;;;;;2.00;67.29;100245.97;1674787;85;21061;-69
2021/11/26 00:53:04;;;;;;;15.05;9.95;;;;;;;2.01;67.32;100239.00;1655807;85;21388;-70
2021/11/26 00:55:33;;;;;;;12.90;9.30;;;;;;;2.02;67.31;100231.56;1646084;85;21469;-70
2021/11/26 00:57:59;;;;;;;14.95;9.83;;;;;;;1.99;67.32;100229.95;1708428;84;20946;-70
2021/11/26 01:00:27;;;;;;;13.43;9.10;;;;;;;1.99;67.33;100216.93;1698621;84;21133;-70
2021/11/26 01:02:54;;;;;;;14.18;9.15;;;;;;;1.98;67.37;100210.50;1681127;85;21659;-70
2021/11/26 01:05:20;;;;;;;12.23;9.08;;;;;;;1.97;67.40;100207.51;1663501;84;20977;-70
2021/11/26 01:07:48;;;;;;;13.68;9.38;;;;;;;1.95;67.47;100206.74;1652865;85;21847;-70
2021/11/26 01:10:18;;;;;;;12.68;8.75;;;;;;;1.95;67.56;100211.95;1670272;85;21074;-70
2021/11/26 01:12:45;;;;;;;12.25;8.95;;;;;;;1.96;67.68;100218.84;1677628;85;21114;-70
2021/11/26 01:15:16;;;;;;;11.88;8.78;;;;;;;1.97;67.70;100212.72;1651287;84;21046;-70
2021/11/26 01:17:43;;;;;;;12.03;9.03;;;;;;;1.97;67.79;100211.41;1651670;84;21062;-71
2021/11/26 01:20:13;;;;;;;13.55;9.35;;;;;;;1.98;67.89;100207.89;1687150;83;21720;-71
2021/11/26 01:22:41;;;;;;;13.98;9.28;;;;;;;1.98;68.03;100207.43;1660622;83;21017;-70
2021/11/26 01:25:08;;;;;;;13.43;9.50;;;;;;;1.99;68.05;100200.46;1683525;83;21087;-71
2021/11/26 01:27:36;;;;;;;11.35;9.18;;;;;;;2.00;68.12;100199.08;1662202;83;21500;-69
2021/11/26 01:30:12;;;;;;;12.80;8.85;;;;;;;1.97;68.23;100188.81;1652827;85;20973;-70
2021/11/26 01:32:36;;;;;;;15.65;10.40;;;;;;;1.96;68.30;100187.13;1652414;84;21073;-71
2021/11/26 01:35:04;;;;;;;15.83;10.32;;;;;;;1.94;68.41;100187.66;1656257;84;21045;-70
2021/11/26 01:37:31;;;;;;;14.78;9.58;;;;;;;1.93;68.52;100179.47;1651410;84;21418;-69
2021/11/26 01:39:59;;;;;;;13.95;10.00;;;;;;;1.94;68.63;100179.85;1685909;83;21431;-70
2021/11/26 01:42:26;;;;;;;15.20;10.25;;;;;;;1.94;68.76;100182.91;1699706;81;21023;-70
2021/11/26 01:44:52;;;;;;;13.95;10.23;;;;;;;1.95;68.88;100176.33;1705029;81;22174;-71
2021/11/26 01:47:19;;;;;;;15.80;10.30;;;;;;;1.97;68.98;100174.95;1695589;81;21479;-70
2021/11/26 01:49:46;;;;;;;15.95;10.55;;;;;;;1.99;69.06;100167.90;1696889;81;21085;-70
2021/11/26 01:52:13;;;;;;;14.18;9.90;;;;;;;2.01;69.07;100166.91;1688851;81;20968;-70
2021/11/26 01:54:40;;;;;;;14.30;10.20;;;;;;;2.03;69.12;100161.64;1687912;82;20948;-70
2021/11/26 01:57:07;;;;;;;15.78;10.23;;;;;;;2.03;69.21;100156.44;1697746;81;21772;-71
2021/11/26 01:59:34;;;;;;;20.70;12.65;;;;;;;2.06;69.34;100158.88;1705302;81;20892;-71
2021/11/26 02:02:00;;;;;;;14.98;9.90;;;;;;;2.08;69.32;100154.90;1712198;82;21037;-70
2021/11/26 02:04:27;;;;;;;18.17;10.72;;;;;;;2.08;69.34;100158.34;1690581;81;21017;-71
2021/11/26 02:06:55;;;;;;;19.48;12.20;;;;;;;2.10;69.40;100156.97;1700859;81;21091;-70
2021/11/26 02:09:22;;;;;;;16.02;10.85;;;;;;;2.12;69.45;100150.75;1710585;81;22176;-71
2021/11/26 02:11:49;;;;;;;18.05;11.88;;;;;;;2.16;69.53;100144.50;1720643;83;21020;-70
2021/11/26 02:14:16;;;;;;;20.90;12.33;;;;;;;2.18;69.55;100153.08;1712792;81;21033;-70
2021/11/26 02:16:45;;;;;;;16.95;10.98;;;;;;;2.20;69.61;100149.93;1718877;82;21642;-70
2021/11/26 02:19:12;;;;;;;23.27;14.43;;;;;;;2.22;69.69;100141.60;1702011;81;21440;-70
2021/11/26 02:21:41;;;;;;;19.65;12.37;;;;;;;2.27;69.69;100146.11;1693641;84;21852;-69
2021/11/26 02:24:08;;;;;;;21.42;12.47;;;;;;;2.29;69.74;100144.73;1697461;83;21016;-70
2021/11/26 02:26:43;;;;;;;16.35;11.22;;;;;;;2.30;69.79;100135.53;1683311;84;21506;-70
2021/11/26 02:29:10;;;;;;;17.77;11.60;;;;;;;2.33;69.82;100133.72;1707580;84;21551;-71
2021/11/26 02:31:37;;;;;;;20.55;12.88;;;;;;;2.35;69.86;100127.97;1696848;84;21069;-69
2021/11/26 02:34:04;;;;;;;17.23;11.43;;;;;;;2.36;69.92;100125.73;1677969;84;21816;-70
2021/11/26 02:36:31;;;;;;;20.80;11.95;;;;;;;2.38;69.93;100118.68;1675656;85;21005;-71
2021/11/26 02:38:58;;;;;;;20.37;12.35;;;;;;;2.37;69.92;100110.48;1690478;82;21027;-70
2021/11/26 02:41:24;;;;;;;18.05;11.70;;;;;;;2.37;69.96;100100.05;1725265;83;20973;-70
2021/11/26 02:43:51;;;;;;;16.50;10.65;;;;;;;2.37;70.00;100113.09;1713089;83;21395;-70
2021/11/26 02:46:20;;;;;;;18.67;11.97;;;;;;;2.38;70.05;100108.25;1701098;83;22207;-71
2021/11/26 02:48:47;;;;;;;16.10;10.75;;;;;;;2.41;70.10;100108.09;1661715;84;21009;-71
2021/11/26 02:51:14;;;;;;;14.85;9.93;;;;;;;2.43;70.11;100106.28;1702940;83;21387;-70
2021/11/26 02:53:41;;;;;;;15.25;10.45;;;;;;;2.42;70.19;100109.34;1710602;83;21052;-71
2021/11/26 02:56:07;;;;;;;14.43;10.50;;;;;;;2.44;70.23;100099.68;1709435;84;21044;-69
2021/11/26 02:58:34;;;;;;;15.93;10.50;;;;;;;2.45;70.25;100101.36;1714539;83;21863;-71
2021/11/26 03:01:03;;;;;;;18.02;11.38;;;;;;;2.46;70.29;100095.69;1687120;84;20957;-70
2021/11/26 03:03:30;;;;;;;16.95;10.93;;;;;;;2.48;70.30;100096.45;1691698;82;20992;-69
2021/11/26 03:05:59;;;;;;;17.75;11.25;;;;;;;2.49;70.32;100099.44;1684379;84;21009;-71
2021/11/26 03:08:28;;;;;;;19.77;13.15;;;;;;;2.51;70.31;100099.77;1687182;83;20992;-71
2021/11/26 03:10:56;;;;;;;20.92;12.88;;;;;;;2.52;70.34;100089.72;1736731;81;21839;-70
2021/11/26 03:13:23;;;;;;;23.70;14.18;;;;;;;2.55;70.37;100087.41;1722619;80;21216;-70
2021/11/26 03:15:50;;;;;;;20.77;13.68;;;;;;;2.56;70.36;100084.71;1777530;80;21140;-70
2021/11/26 03:18:19;;;;;;;24.27;14.70;;;;;;;2.58;70.34;100082.02;1743074;80;21475;-70
2021/11/26 03:20:48;;;;;;;41.95;19.65;;;;;;;2.57;70.30;100077.73;1729742;81;21500;-70
2021/11/26 03:23:15;;;;;;;35.20;18.57;;;;;;;2.57;70.30;100077.27;1737975;82;22485;-69
2021/11/26 03:25:42;;;;;;;36.05;19.07;;;;;;;2.57;70.31;100077.73;1720079;81;20934;-71
2021/11/26 03:28:10;;;;;;;24.60;15.13;;;;;;;2.55;70.32;100070.45;1720555;81;20993;-72
2021/11/26 03:30:37;;;;;;;23.12;15.55;;;;;;;2.53;70.36;100071.00;1722679;81;21009;-70
2021/11/26 03:33:04;;;;;;;28.45;18.25;;;;;;;2.51;70.39;100061.09;1708689;81;20965;-71
2021/11/26 03:35:32;;;;;;;21.15;15.53;;;;;;;2.51;70.44;100058.48;1695817;83;21069;-71
2021/11/26 03:37:59;;;;;;;30.68;21.25;;;;;;;2.51;70.47;100063.27;1698204;83;21125;-70
2021/11/26 03:40:27;;;;;;;30.57;22.10;;;;;;;2.52;70.52;100062.34;1715349;81;21618;-70
2021/11/26 03:42:55;;;;;;;29.67;18.07;;;;;;;2.54;70.55;100057.05;1717640;81;21417;-70
2021/11/26 03:45:24;;;;;;;31.33;18.73;;;;;;;2.55;70.54;100046.53;1703010;81;20998;-70
2021/11/26 03:47:51;;;;;;;24.37;17.80;;;;;;;2.54;70.57;100044.01;1705386;83;21766;-71
2021/11/26 03:50:18;;;;;;;26.73;18.65;;;;;;;2.52;70.61;100050.61;1742280;81;21035;-70
2021/11/26 03:52:45;;;;;;;23.38;15.75;;;;;;;2.51;70.67;100060.66;1698787;81;21037;-70
2021/11/26 03:55:17;;;;;;;27.00;16.65;;;;;;;2.54;70.71;100063.56;1728840;83;21050;-70
2021/11/26 03:57:45;;;;;;;23.32;16.32;;;;;;;2.58;70.71;100068.98;1723780;81;20957;-70
2021/11/26 04:00:12;;;;;;;19.00;14.07;;;;;;;2.59;70.68;100064.99;1710408;81;21959;-71
2021/11/26 04:02:40;;;;;;;18.12;12.73;;;;;;;2.63;70.71;100073.52;1689719;83;21051;-71
2021/11/26 04:05:08;;;;;;;13.93;9.93;;;;;;;2.65;70.71;100079.48;1718480;81;20962;-71
2021/11/26 04:07:35;;;;;;;15.50;11.25;;;;;;;2.69;70.78;100081.00;1705120;83;21497;-70
2021/11/26 04:10:02;;;;;;;15.50;11.45;;;;;;;2.70;70.84;100077.94;1725838;83;20996;-70
2021/11/26 04:12:29;;;;;;;20.55;13.75;;;;;;;2.73;70.93;100077.80;1718159;81;21893;-70
2021/11/26 04:14:56;;;;;;;19.32;12.98;;;;;;;2.75;70.96;100082.47;1728696;81;21021;-71
2021/11/26 04:17:23;;;;;;;15.75;10.05;;;;;;;2.74;70.94;100085.53;1720523;82;21008;-71
2021/11/26 04:19:50;;;;;;;14.47;10.28;;;;;;;2.74;70.96;100084.70;1706035;82;21009;-71
2021/11/26 04:22:18;;;;;;;13.40;9.25;;;;;;;2.74;70.97;100082.09;1704017;82;21013;-71
2021/11/26 04:24:45;;;;;;;11.90;9.10;;;;;;;2.73;71.04;100083.02;1719898;82;21751;-71
2021/11/26 04:27:12;;;;;;;11.75;8.50;;;;;;;2.73;71.10;100078.64;1663389;85;21432;-70
2021/11/26 04:29:38;;;;;;;14.83;10.50;;;;;;;2.73;71.13;100072.13;1650382;85;21044;-70
2021/11/26 04:32:07;;;;;;;12.58;9.63;;;;;;;2.72;71.19;100065.69;1710658;82;21026;-71
2021/11/26 04:34:35;;;;;;;14.03;9.95;;;;;;;2.72;71.25;100067.83;1706521;82;21001;-71
2021/11/26 04:37:02;;;;;;;14.68;8.98;;;;;;;2.72;71.36;100060.47;1700852;82;22806;-70
2021/11/26 04:39:29;;;;;;;13.53;9.28;;;;;;;2.71;71.45;100062.23;1705022;83;21021;-71
2021/11/26 04:41:55;;;;;;;12.58;9.25;;;;;;;2.72;71.53;100059.16;1688714;83;21551;-70
2021/11/26 04:44:22;;;;;;;12.43;8.73;;;;;;;2.74;71.68;100059.45;1660385;84;21118;-71
2021/11/26 04:46:49;;;;;;;15.72;10.23;;;;;;;2.80;71.67;100066.13;1690649;84;21022;-70
2021/11/26 04:49:16;;;;;;;12.43;8.93;;;;;;;2.84;71.63;100067.64;1701438;83;22864;-73
2021/11/26 04:51:42;;;;;;;13.83;9.50;;;;;;;2.86;71.60;100054.89;1714981;82;20993;-71
2021/11/26 04:54:09;;;;;;;12.37;9.15;;;;;;;2.90;71.53;100069.94;1683739;85;21017;-70
2021/11/26 04:56:36;;;;;;;12.73;8.80;;;;;;;2.93;71.47;100064.55;1686307;83;21491;-70
2021/11/26 04:59:03;;;;;;;13.83;10.10;;;;;;;2.96;71.36;100064.37;1688148;84;21114;-71
2021/11/26 05:01:30;;;;;;;13.90;9.10;;;;;;;2.97;71.33;100066.06;1705347;84;22465;-70
2021/11/26 05:03:57;;;;;;;13.65;9.33;;;;;;;2.99;71.30;100058.15;1704663;83;20993;-69
2021/11/26 05:06:24;;;;;;;17.23;9.75;;;;;;;3.01;71.23;100059.77;1702233;84;20958;-70
2021/11/26 05:08:51;;;;;;;12.73;8.38;;;;;;;3.01;71.18;100065.00;1700597;84;20974;-70
2021/11/26 05:11:18;;;;;;;12.93;8.93;;;;;;;3.02;71.13;100054.94;1698928;84;21013;-70
2021/11/26 05:13:45;;;;;;;12.35;9.08;;;;;;;3.02;71.08;100059.31;1698832;84;22476;-70
2021/11/26 05:16:13;;;;;;;11.97;8.75;;;;;;;3.01;71.06;100049.34;1692840;84;20993;-70
2021/11/26 05:18:41;;;;;;;11.25;8.23;;;;;;;3.02;71.04;100047.57;1698273;83;21092;-68
2021/11/26 05:21:09;;;;;;;11.78;8.40;;;;;;;3.00;71.03;100045.05;1722716;82;21082;-68
2021/11/26 05:23:35;;;;;;;12.98;8.75;;;;;;;3.01;71.02;100051.95;1737326;82;21012;-68
2021/11/26 05:26:03;;;;;;;12.63;8.15;;;;;;;3.00;71.03;100054.19;1714453;82;22259;-70
2021/11/26 05:28:30;;;;;;;12.33;8.78;;;;;;;3.02;71.00;100061.92;1733155;81;21001;-69
2021/11/26 05:30:57;;;;;;;10.80;7.72;;;;;;;3.02;70.94;100049.72;1741438;82;20993;-68
2021/11/26 05:33:25;;;;;;;12.75;7.67;;;;;;;3.03;70.90;100056.62;1745799;81;21492;-68
2021/11/26 05:35:52;;;;;;;11.30;8.43;;;;;;;3.02;70.86;100053.63;1732289;80;21021;-69
2021/11/26 05:38:18;;;;;;;11.83;7.87;;;;;;;3.02;70.83;100044.97;1734620;81;21829;-69
2021/11/26 05:40:46;;;;;;;13.80;8.43;;;;;;;3.01;70.80;100047.20;1734714;81;21079;-67
2021/11/26 05:43:13;;;;;;;12.60;8.08;;;;;;;3.01;70.77;100055.02;1738384;82;21359;-69
2021/11/26 05:45:40;;;;;;;12.78;8.00;;;;;;;2.98;70.75;100049.95;1744628;80;21037;-68
2021/11/26 05:48:07;;;;;;;13.53;8.30;;;;;;;2.95;70.81;100050.13;1745837;81;21502;-68
2021/11/26 05:50:34;;;;;;;11.08;8.40;;;;;;;2.95;70.93;100050.13;1743598;80;21732;-68
2021/11/26 05:53:01;;;;;;;20.10;11.70;;;;;;;2.98;71.02;100056.47;1746691;80;21372;-69
2021/11/26 05:55:31;;;;;;;18.27;10.58;;;;;;;3.03;71.01;100050.56;1738241;80;21072;-69
2021/11/26 05:58:00;;;;;;;16.80;9.38;;;;;;;3.06;70.98;100050.39;1717487;82;21016;-69
2021/11/26 06:00:28;;;;;;;23.12;11.48;;;;;;;3.10;70.90;100042.33;1713477;82;21025;-68
2021/11/26 06:02:55;;;;;;;15.18;10.63;;;;;;;3.15;70.82;100038.15;1740449;81;22650;-69
2021/11/26 06:05:23;;;;;;;14.23;9.43;;;;;;;3.19;70.79;100043.60;1716503;82;21076;-70
2021/11/26 06:07:50;;;;;;;21.48;14.80;;;;;;;3.22;70.74;100049.11;1741012;81;21064;-69
2021/11/26 06:10:17;;;;;;;11.90;7.75;;;;;;;3.25;70.71;100045.02;1758280;80;20992;-69
2021/11/26 06:12:47;;;;;;;15.63;9.90;;;;;;;3.30;70.62;100050.37;1738146;81;20956;-70
2021/11/26 06:15:15;;;;;;;20.20;11.03;;;;;;;3.34;70.56;100045.36;1744240;80;21861;-68
2021/11/26 06:17:43;;;;;;;12.30;7.92;;;;;;;3.38;70.51;100035.14;1716501;82;20956;-69
2021/11/26 06:20:10;;;;;;;11.10;6.83;;;;;;;3.42;70.40;100032.73;1710313;82;21408;-67
2021/11/26 06:22:39;;;;;;;11.50;6.85;;;;;;;3.46;70.33;100034.70;1765760;80;21444;-67
2021/11/26 06:25:07;;;;;;;10.28;7.35;;;;;;;3.49;70.25;100033.23;1750113;80;21052;-67
2021/11/26 06:27:34;;;;;;;12.60;8.08;;;;;;;3.53;70.19;100033.91;1739068;81;21870;-69
2021/11/26 06:30:00;;;;;;;9.48;6.53;;;;;;;3.56;70.11;100033.25;1742170;80;21023;-68
2021/11/26 06:32:28;;;;;;;14.65;9.25;;;;;;;3.63;70.05;100017.63;1721796;81;21040;-71
2021/11/26 06:34:55;;;;;;;13.05;7.92;;;;;;;3.72;69.98;100022.33;1732345;81;21112;-67
2021/11/26 06:37:22;;;;;;;10.85;7.10;;;;;;;3.80;69.85;100018.45;1738675;81;20944;-69
2021/11/26 06:39:48;;;;;;;13.03;7.78;;;;;;;3.86;69.75;100015.03;1733905;80;21783;-70
2021/11/26 06:42:17;;;;;;;10.72;6.72;;;;;;;3.91;69.63;100027.34;1727601;81;21485;-70
2021/11/26 06:44:44;;;;;;;11.28;7.15;;;;;;;3.97;69.45;100027.01;1730128;80;21013;-69
2021/11/26 06:47:10;;;;;;;10.53;5.95;;;;;;;4.05;69.24;100041.38;1737250;81;21076;-69
2021/11/26 06:49:37;;;;;;;9.10;6.00;;;;;;;4.14;69.11;100029.09;1732613;80;21059;-70
2021/11/26 06:52:05;;;;;;;7.65;6.05;;;;;;;4.19;68.97;100024.45;1704616;83;21850;-69
2021/11/26 06:54:32;;;;;;;8.88;5.65;;;;;;;4.24;68.80;100031.54;1704656;84;20962;-69
2021/11/26 06:56:59;;;;;;;8.15;5.75;;;;;;;4.32;68.58;100037.16;1704844;83;21004;-68
2021/11/26 06:59:26;;;;;;;9.83;6.50;;;;;;;4.37;68.40;100037.75;1718034;82;21060;-69
2021/11/26 07:01:53;;;;;;;8.33;6.58;;;;;;;4.43;68.39;100033.44;1729283;82;21371;-70
2021/11/26 07:04:20;;;;;;;10.55;6.35;;;;;;;4.49;68.33;100038.78;1734836;82;22870;-70
2021/11/26 07:06:46;;;;;;;8.95;6.25;;;;;;;4.54;68.33;100034.14;1740458;81;21463;-70
2021/11/26 07:09:13;;;;;;;8.08;5.78;;;;;;;4.58;68.19;100028.61;1718510;82;20952;-69
2021/11/26 07:11:40;;;;;;;8.48;6.25;;;;;;;4.64;68.14;100029.20;1741129;81;21004;-69
2021/11/26 07:14:07;;;;;;;7.87;5.70;;;;;;;4.71;67.93;100029.17;1740537;82;21016;-70
2021/11/26 07:16:34;;;;;;;8.55;5.70;;;;;;;4.77;67.91;100031.43;1740645;82;22479;-69
2021/11/26 07:19:00;;;;;;;7.10;5.25;;;;;;;4.80;67.76;100029.92;1740724;82;21392;-69
2021/11/26 07:21:27;;;;;;;8.80;5.37;;;;;;;4.85;67.78;100029.19;1739528;81;21017;-69
2021/11/26 07:23:55;;;;;;;9.88;5.58;;;;;;;4.85;67.61;100026.11;1741250;81;20941;-69
2021/11/26 07:26:22;;;;;;;6.12;4.87;;;;;;;4.86;67.42;100015.17;1741008;82;20968;-69
2021/11/26 07:28:49;;;;;;;8.73;5.20;;;;;;;4.86;67.27;100022.55;1741259;82;21728;-70
2021/11/26 07:31:16;;;;;;;7.40;5.15;;;;;;;4.88;67.28;100035.54;1740481;82;21192;-68
2021/11/26 07:33:43;;;;;;;7.83;5.55;;;;;;;4.89;67.24;100020.20;1736461;81;20958;-69
2021/11/26 07:36:10;;;;;;;8.48;5.70;;;;;;;4.91;67.30;100027.48;1729407;82;21062;-69
2021/11/26 07:38:36;;;;;;;9.25;4.97;;;;;;;4.90;67.33;100029.73;1730027;81;21064;-69
2021/11/26 07:41:03;;;;;;;6.75;5.17;;;;;;;4.89;67.29;100022.82;1708379;81;22902;-69
2021/11/26 07:43:30;;;;;;;12.43;5.87;;;;;;;4.92;67.21;100027.02;1732269;80;20993;-71
2021/11/26 07:45:57;;;;;;;7.65;5.50;;;;;;;4.94;67.36;100016.02;1744407;81;21008;-70
2021/11/26 07:48:24;;;;;;;9.28;6.20;;;;;;;4.98;67.39;100014.41;1745269;82;21004;-68
2021/11/26 07:50:51;;;;;;;7.90;5.50;;;;;;;5.03;67.48;100009.73;1744974;81;21453;-69
2021/11/26 07:53:18;;;;;;;7.05;5.05;;;;;;;5.12;67.51;100006.55;1745288;82;22194;-70
2021/11/26 07:55:44;;;;;;;9.48;5.28;;;;;;;5.23;67.27;100008.96;1742159;81;20956;-69
2021/11/26 07:58:13;;;;;;;9.23;5.47;;;;;;;5.30;67.04;100001.06;1740168;81;21060;-69
2021/11/26 08:00:40;;;;;;;10.00;5.90;;;;;;;5.37;66.88;100001.05;1740960;82;21354;-71
2021/11/26 08:03:06;;;;;;;9.50;5.47;;;;;;;5.45;66.96;100009.27;1741110;81;21095;-69
2021/11/26 08:05:33;;;;;;;8.70;5.15;;;;;;;5.47;66.67;100007.38;1740946;82;22165;-70
2021/11/26 08:07:59;;;;;;;8.63;5.78;;;;;;;5.45;66.61;100044.63;1740896;82;20984;-71
2021/11/26 08:10:27;;;;;;;9.43;5.58;;;;;;;5.47;66.70;99998.22;1740501;81;21525;-70
2021/11/26 08:12:54;;;;;;;9.78;6.45;;;;;;;5.48;66.78;100006.44;1740044;81;21451;-70
2021/11/26 08:15:21;;;;;;;8.28;5.97;;;;;;;5.55;66.79;99996.42;1740825;82;21001;-70
2021/11/26 08:17:49;;;;;;;9.88;6.10;;;;;;;5.64;66.99;100001.91;1740690;82;20989;-70
2021/11/26 08:20:17;;;;;;;7.78;5.55;;;;;;;5.69;66.54;99991.98;1740669;82;21036;-70
2021/11/26 08:22:44;;;;;;;9.90;6.62;;;;;;;5.72;66.65;99996.17;1737670;81;20985;-69
2021/11/26 08:25:13;;;;;;;8.30;6.00;;;;;;;5.73;66.32;99996.53;1729223;83;21440;-70
2021/11/26 08:27:41;;;;;;;9.85;6.03;;;;;;;5.77;66.51;99981.44;1708560;82;38363;-69
2021/11/26 08:30:10;;;;;;;7.15;5.35;;;;;;;5.82;66.40;99987.23;1739968;82;21852;-70
2021/11/26 08:32:37;;;;;;;10.08;5.92;;;;;;;5.87;66.33;99988.59;1740893;82;21035;-71
2021/11/26 08:35:04;;;;;;;7.90;5.42;;;;;;;5.91;66.19;99990.12;1740575;81;20953;-72
2021/11/26 08:37:32;;;;;;;18.32;11.73;;;;;;;5.95;66.12;99978.95;1740550;81;21000;-72
2021/11/26 08:39:59;;;;;;;31.07;18.85;;;;;;;6.02;66.21;99987.63;1740918;81;21083;-72
2021/11/26 08:42:26;;;;;;;14.03;8.80;;;;;;;6.09;66.06;99981.51;1740989;82;22274;-71
2021/11/26 08:44:53;;;;;;;9.53;6.95;;;;;;;6.13;65.58;99987.38;1740665;82;21467;-71
2021/11/26 08:47:20;;;;;;;9.63;6.10;;;;;;;6.13;65.53;99980.34;1740228;82;21462;-72
2021/11/26 08:49:46;;;;;;;9.45;6.83;;;;;;;6.17;65.43;99972.63;1740926;82;21037;-72
2021/11/26 08:52:13;;;;;;;7.58;6.17;;;;;;;6.23;65.43;99979.25;1720016;82;20949;-78
2021/11/26 08:54:40;;;;;;;9.40;6.28;;;;;;;6.27;65.40;99974.16;1745147;82;21755;-70
2021/11/26 08:57:08;;;;;;;10.93;7.67;;;;;;;6.35;65.62;99970.55;1745372;81;20989;-70
2021/11/26 08:59:36;;;;;;;9.93;7.80;;;;;;;6.45;65.27;99968.97;1745511;81;21502;-71
2021/11/26 09:02:04;;;;;;;13.13;8.68;;;;;;;6.54;65.51;99965.71;1745016;82;20954;-70
2021/11/26 09:04:32;;;;;;;11.57;8.55;;;;;;;6.66;65.21;99968.42;1676884;85;21017;-71
2021/11/26 09:06:59;;;;;;;14.95;10.40;;;;;;;6.71;64.61;99967.17;1654540;86;22683;-73
2021/11/26 09:09:27;;;;;;;11.25;7.95;;;;;;;6.76;64.69;99953.27;1676637;85;21464;-73
2021/11/26 09:11:54;;;;;;;15.25;9.53;;;;;;;6.86;64.87;99954.77;1676810;85;21464;-71
2021/11/26 09:14:20;;;;;;;13.30;8.88;;;;;;;6.93;64.76;99964.34;1676780;85;21033;-70
2021/11/26 09:16:47;;;;;;;15.63;11.53;;;;;;;7.01;64.20;99962.02;1676886;85;21076;-70
2021/11/26 09:19:13;;;;;;;15.53;9.50;;;;;;;7.01;63.89;99948.89;1657194;85;22512;-70
2021/11/26 09:21:40;;;;;;;12.88;9.38;;;;;;;7.04;64.18;99946.88;1704930;82;21432;-70
2021/11/26 09:24:07;;;;;;;11.35;8.45;;;;;;;7.10;63.91;99945.61;1705138;84;21097;-70
2021/11/26 09:26:35;;;;;;;10.15;6.40;;;;;;;7.18;63.76;99948.05;1705103;84;21023;-70
2021/11/26 09:29:01;;;;;;;10.13;8.03;;;;;;;7.27;63.37;99933.89;1670756;84;20944;-71
2021/11/26 09:31:29;;;;;;;9.58;5.58;;;;;;;7.37;63.23;99938.84;1713351;83;22193;-70
2021/11/26 09:33:56;;;;;;;10.50;8.53;;;;;;;7.49;62.90;99937.09;1713655;83;20949;-70
2021/11/26 09:36:24;;;;;;;10.90;5.65;;;;;;;7.58;62.64;99937.73;1710922;82;21010;-70
2021/11/26 09:38:50;;;;;;;9.00;6.70;;;;;;;7.66;62.56;99936.22;1681244;85;20977;-70
2021/11/26 09:41:17;;;;;;;10.80;8.25;;;;;;;7.81;62.43;99934.70;1705134;83;21012;-70
2021/11/26 09:43:47;;;;;;;8.10;6.08;;;;;;;7.87;62.10;99936.40;1704874;84;22742;-71
2021/11/26 09:46:12;;;;;;;7.72;5.05;;;;;;;7.91;61.91;99929.11;1704902;84;20942;-71
2021/11/26 09:48:39;;;;;;;7.20;5.53;;;;;;;7.98;61.92;99929.02;1684805;84;21514;-70
2021/11/26 09:51:06;;;;;;;7.17;5.08;;;;;;;8.02;61.36;99920.80;1704856;84;21544;-69
2021/11/26 09:53:33;;;;;;;7.85;5.17;;;;;;;8.08;61.09;99929.16;1704049;84;20949;-69
2021/11/26 09:56:05;;;;;;;8.33;4.95;;;;;;;8.14;61.13;99929.53;1703968;83;22238;-71
2021/11/26 09:58:32;;;;;;;7.20;5.35;;;;;;;8.21;61.05;99923.34;1697800;84;20998;-69
2021/11/26 10:01:02;;;;;;;10.32;6.50;;;;;;;8.27;60.89;99920.21;1697836;83;20986;-69
2021/11/26 10:03:50;;;;;;;9.55;6.97;;;;;;;8.35;61.08;99914.40;1694606;83;21493;-69
2021/11/26 10:06:28;;;;;;;8.80;6.62;;;;;;;8.38;60.50;99891.78;1694380;84;21034;-69
2021/11/26 10:09:08;;;;;;;15.72;10.20;;;;;;;8.30;60.70;99896.31;1694597;84;21830;-70
2021/11/26 10:11:40;;;;;;;11.28;7.40;;;;;;;8.25;61.19;99890.56;1677212;85;21048;-70
2021/11/26 10:14:21;;;;;;;9.63;6.20;;;;;;;8.25;61.22;99895.34;1667881;85;21005;-70
2021/11/26 10:16:56;;;;;;;7.53;5.05;;;;;;;8.25;61.05;99897.97;1676381;85;21024;-70
2021/11/26 10:19:35;;;;;;;8.98;5.17;;;;;;;8.26;61.25;99872.02;1676870;85;21001;-70
2021/11/26 10:22:37;;;;;;;11.85;6.58;;;;;;;8.38;61.36;99876.83;1676490;84;21852;-70
2021/11/26 10:25:16;;;;;;;6.62;4.97;;;;;;;8.48;60.70;99877.78;1676205;85;20969;-70
2021/11/26 10:27:56;;;;;;;9.33;5.37;;;;;;;8.49;60.55;99873.35;1681039;84;20980;-69
2021/11/26 10:30:39;;;;;;;7.78;4.67;;;;;;;8.47;60.49;99869.53;1686182;85;21004;-70
2021/11/26 10:33:25;;;;;;;6.60;4.50;;;;;;;8.44;60.52;99870.26;1686352;85;20981;-70
2021/11/26 10:35:58;;;;;;;5.42;4.22;;;;;;;8.39;60.73;99855.30;1686384;85;21818;-70
2021/11/26 10:38:34;;;;;;;7.08;4.33;;;;;;;8.35;60.73;99852.56;1686243;84;20980;-70
2021/11/26 10:41:14;;;;;;;7.87;4.60;;;;;;;8.26;60.69;99858.03;1686773;85;21068;-70
2021/11/26 10:59:42;;;;;;;4.50;3.35;;;;;;;8.15;61.58;99822.04;1705507;83;20957;-70
2021/11/26 11:02:09;;;;;;;7.95;3.42;;;;;;;8.14;61.67;99829.58;1699907;84;22203;-69
2021/11/26 11:04:37;;;;;;;5.28;3.62;;;;;;;8.13;61.82;99816.06;1682896;84;20954;-71
2021/11/26 11:07:11;;;;;;;4.72;3.27;;;;;;;8.15;61.83;99804.10;1679980;85;21033;-69
2021/11/26 11:09:45;;;;;;;7.72;5.03;;;;;;;8.17;61.63;99806.12;1675156;85;21492;-70
2021/11/26 11:12:12;;;;;;;7.53;3.62;;;;;;;8.16;61.73;99814.50;1675030;84;21500;-70
2021/11/26 11:14:40;;;;;;;6.08;3.25;;;;;;;8.15;61.72;99802.79;1674916;85;22672;-71
2021/11/26 11:17:08;;;;;;;5.33;3.27;;;;;;;8.12;61.63;99803.04;1674893;85;21029;-71
2021/11/26 11:19:34;;;;;;;8.28;3.75;;;;;;;8.11;61.80;99796.94;1680186;85;21014;-71
2021/11/26 11:22:01;;;;;;;6.85;3.67;;;;;;;8.11;62.13;99787.73;1680004;85;21076;-72
2021/11/26 11:24:28;;;;;;;6.03;3.58;;;;;;;8.12;62.14;99788.57;1660154;85;21519;-71
2021/11/26 11:26:55;;;;;;;8.13;4.28;;;;;;;8.15;62.24;99777.80;1629749;87;23009;-71
2021/11/26 11:29:25;;;;;;;5.78;3.70;;;;;;;8.15;62.08;99781.74;1698605;83;21404;-71
2021/11/26 11:31:56;;;;;;;6.62;3.60;;;;;;;8.15;61.99;99779.11;1689261;84;20988;-71
2021/11/26 11:34:26;;;;;;;6.20;3.52;;;;;;;8.14;61.95;99775.65;1689224;85;20964;-71
2021/11/26 11:36:56;;;;;;;6.70;3.37;;;;;;;8.12;61.80;99782.83;1674464;84;20973;-73
2021/11/26 11:39:22;;;;;;;7.08;3.15;;;;;;;8.11;61.84;99773.75;1701999;83;21775;-72
2021/11/26 11:41:59;;;;;;;9.10;5.87;;;;;;;8.10;61.54;99771.56;1695692;84;21389;-71
2021/11/26 11:44:31;;;;;;;9.28;4.53;;;;;;;8.13;61.56;99775.30;1655909;86;21064;-70
2021/11/26 11:47:01;;;;;;;6.12;3.87;;;;;;;8.15;61.65;99783.89;1695609;84;21020;-72